Flight Track Log - Related Links

Times and Time Zones

All times are in EDT time to prevent confusion due to time zone crossing. See the WBR2622 flight status page for this flight to view local times or setup timezone preferences in your user account.

Time Position Orientation Groundspeed Altitude Reporting Facility
EDT Latitude Longitude Course Direction KTS MPH feet Rate Location/Type
Sun 12:25:13 PM 38.7500 -90.3000 339° North 139 160 1,300  Level Gateway (St. Louis) TRACON
Sun 12:26:13 PM 38.7833 -90.3000 360° North 134 154 1,700 550 Climbing Gateway (St. Louis) TRACON
Sun 12:27:13 PM 38.8167 -90.3167 339° North 130 150 2,400 500 Climbing Gateway (St. Louis) TRACON
Sun 12:28:13 PM 38.8500 -90.3333 339° North 143 165 2,700 250 Climbing Gateway (St. Louis) TRACON
Sun 12:29:13 PM 38.9000 -90.3333 360° North 161 185 2,900 450 Climbing Gateway (St. Louis) TRACON
Sun 12:30:00 PM 38.9743 -90.4205 339° North  Level FlightAware Approximate
Sun 12:30:13 PM 38.9333 -90.3667 322° Northwest 140 161 3,600  Level Gateway (St. Louis) TRACON
Sun 12:31:13 PM 38.9667 -90.3833 339° North 135 155 4,200 605 Climbing Gateway (St. Louis) TRACON
Sun 12:32:22 PM 38.9969 -90.4069 329° Northwest 137 158 4,900 687 Climbing Kansas City Center
Sun 12:33:24 PM 39.0314 -90.4444 320° Northwest 135 155 5,700 677 Climbing Kansas City Center
Sun 12:34:26 PM 39.0614 -90.4722 324° Northwest 135 155 6,300 576 Climbing Kansas City Center
Sun 12:35:29 PM 39.0911 -90.4964 328° Northwest 129 148 6,900 339 Climbing Kansas City Center
Sun 12:36:30 PM 39.1219 -90.5283 321° Northwest 137 158 7,000 49 Climbing Kansas City Center
Sun 12:37:32 PM 39.1544 -90.5697 315° West 157 181 7,000 435 Level Kansas City Center
Sun 12:38:34 PM 39.1897 -90.6156 315° West 153 176 7,900 484 Climbing Kansas City Center
Sun 12:39:36 PM 39.2206 -90.6489 320° Northwest 146 168 8,000 48 Climbing Kansas City Center
Sun 12:40:38 PM 39.2558 -90.6878 320° Northwest 160 184 8,000  Level Kansas City Center
Sun 12:41:40 PM 39.2878 -90.7336 312° West 168 193 8,000  Level Kansas City Center
Sun 12:42:42 PM 39.3239 -90.7750 318° Northwest 173 199 8,000  Level Kansas City Center
Sun 12:43:44 PM 39.3611 -90.8178 318° Northwest 177 204 8,000  Level Kansas City Center
Sun 12:44:46 PM 39.4097 -90.8661 322° Northwest 182 209 8,000  Level Kansas City Center
Sun 12:45:49 PM 39.4642 -90.8775 351° North 190 219 8,000 -48 Level Kansas City Center
Sun 12:46:51 PM 39.5181 -90.8956 346° North 196 226 7,900 -48 Descending Kansas City Center
Sun 12:47:53 PM 39.5689 -90.9142 344° North 194 223 7,900  Level Kansas City Center
Sun 12:48:55 PM 39.6211 -90.9350 343° North 195 224 7,900  Level Kansas City Center
Sun 12:49:57 PM 39.6731 -90.9528 345° North 194 223 7,900  Level Kansas City Center
Sun 12:50:59 PM 39.7350 -90.9575 357° North 188 216 7,900  Level Kansas City Center
Sun 12:52:01 PM 39.7881 -90.9658 353° North 188 216 7,900  Level Kansas City Center
Sun 12:53:03 PM 39.8386 -90.9736 353° North 194 223 7,900  Level Kansas City Center
Sun 12:54:05 PM 39.8922 -90.9814 354° North 196 226 7,900  Level Kansas City Center
Sun 12:55:07 PM 39.9583 -90.9911 354° North 199 229 7,900 -48 Level Kansas City Center
Sun 12:56:09 PM 40.0117 -91.0006 352° North 196 226 7,800 -339 Descending Kansas City Center
Sun 12:57:11 PM 40.0675 -91.0144 349° North 202 232 7,200 -532 Descending Kansas City Center
Sun 12:58:13 PM 40.1247 -91.0322 347° North 210 242 6,700 -629 Descending Kansas City Center
Sun 12:59:15 PM 40.1814 -91.0447 350° North 209 241 5,900 -919 Descending Kansas City Center
Sun 01:00:17 PM 40.2483 -91.0556 353° North 203 234 4,800 -968 Descending Kansas City Center
Sun 01:01:19 PM 40.3053 -91.0664 352° North 211 243 3,900 -435 Descending Kansas City Center
Sun 01:02:21 PM 40.3614 -91.0817 348° North 208 239 3,900 -75 Level Kansas City Center
Sun 01:02:39 PM 40.3800 -91.0892 343° North 202 232 3,800 -225 Descending Chicago Center
Sun 01:03:41 PM 40.4244 -91.1069 343° North 179 206 3,600 -339 Descending Chicago Center
Sun 01:04:43 PM 40.4828 -91.1247 347° North 193 222 3,100 -339 Descending Chicago Center
Sun 01:05:45 PM 40.5331 -91.1239 North 194 223 2,900 -97 Descending Chicago Center
Sun 01:06:47 PM 40.5783 -91.1233 North 173 199 2,900  Level Chicago Center
Sun 01:07:48 PM 40.6247 -91.1247 359° North 168 193 2,900 -244 Level Chicago Center
Sun 01:08:50 PM 40.6811 -91.1239 North 169 194 2,400 -484 Descending Chicago Center
Sun 01:09:52 PM 40.7289 -91.1236 360° North 168 193 1,900 -290 Descending Chicago Center
Sun 01:10:54 PM 40.7708 -91.1289 355° North 168 193 1,800 -97 Descending Chicago Center
Sun 01:12:00 PM 40.7667 -91.1167 North  Level FlightAware Approximate
Sun 01:19:00 PM 40.7832 -91.1255 North  Level Estimated
Sun 01:20:00 PM 40.7832 -91.1255 North  Level Estimated

Login

Don't have an account? Register now (free) for customized features, flight alerts, and more!